sensor_id;sensor_type;location;lat;lon;timestamp;P1;durP1;ratioP1;P2;durP2;ratioP2
3293;SDS011;1659;51.470;6.770;2022-12-05T00:01:14;57.00;;;29.43;;
3293;SDS011;1659;51.470;6.770;2022-12-05T00:03:43;61.60;;;29.50;;
3293;SDS011;1659;51.470;6.770;2022-12-05T00:06:10;64.10;;;27.53;;
3293;SDS011;1659;51.470;6.770;2022-12-05T00:08:38;64.03;;;29.53;;
3293;SDS011;1659;51.470;6.770;2022-12-05T00:11:09;53.40;;;28.40;;
3293;SDS011;1659;51.470;6.770;2022-12-05T00:13:37;56.30;;;28.40;;
3293;SDS011;1659;51.470;6.770;2022-12-05T00:16:05;55.47;;;27.53;;
3293;SDS011;1659;51.470;6.770;2022-12-05T00:18:33;56.00;;;28.43;;
3293;SDS011;1659;51.470;6.770;2022-12-05T00:21:00;63.57;;;29.10;;
3293;SDS011;1659;51.470;6.770;2022-12-05T00:23:26;56.77;;;29.10;;
3293;SDS011;1659;51.470;6.770;2022-12-05T00:25:54;59.83;;;28.77;;
3293;SDS011;1659;51.470;6.770;2022-12-05T00:28:21;55.40;;;29.63;;
3293;SDS011;1659;51.470;6.770;2022-12-05T00:30:48;65.00;;;29.67;;
3293;SDS011;1659;51.470;6.770;2022-12-05T00:33:14;48.13;;;26.30;;
3293;SDS011;1659;51.470;6.770;2022-12-05T00:35:41;54.03;;;26.50;;
3293;SDS011;1659;51.470;6.770;2022-12-05T00:38:07;59.67;;;28.50;;
3293;SDS011;1659;51.470;6.770;2022-12-05T00:40:34;61.90;;;28.73;;
3293;SDS011;1659;51.470;6.770;2022-12-05T00:43:02;59.87;;;29.00;;
3293;SDS011;1659;51.470;6.770;2022-12-05T00:45:29;60.87;;;26.90;;
3293;SDS011;1659;51.470;6.770;2022-12-05T00:47:55;62.20;;;27.83;;
3293;SDS011;1659;51.470;6.770;2022-12-05T00:50:22;59.40;;;28.00;;
3293;SDS011;1659;51.470;6.770;2022-12-05T00:52:48;68.10;;;29.50;;
3293;SDS011;1659;51.470;6.770;2022-12-05T00:55:15;60.10;;;27.87;;
3293;SDS011;1659;51.470;6.770;2022-12-05T00:57:41;65.73;;;27.53;;
3293;SDS011;1659;51.470;6.770;2022-12-05T01:00:10;64.43;;;28.57;;
3293;SDS011;1659;51.470;6.770;2022-12-05T01:02:37;58.87;;;30.77;;
3293;SDS011;1659;51.470;6.770;2022-12-05T01:05:04;57.27;;;26.30;;
3293;SDS011;1659;51.470;6.770;2022-12-05T01:07:31;55.13;;;27.67;;
3293;SDS011;1659;51.470;6.770;2022-12-05T01:09:57;64.23;;;28.37;;
3293;SDS011;1659;51.470;6.770;2022-12-05T01:12:24;56.33;;;28.37;;
3293;SDS011;1659;51.470;6.770;2022-12-05T01:14:52;55.63;;;30.57;;
3293;SDS011;1659;51.470;6.770;2022-12-05T01:17:20;61.97;;;30.03;;
3293;SDS011;1659;51.470;6.770;2022-12-05T01:19:46;57.87;;;29.73;;
3293;SDS011;1659;51.470;6.770;2022-12-05T01:22:13;65.87;;;30.77;;
3293;SDS011;1659;51.470;6.770;2022-12-05T01:24:39;57.83;;;30.20;;
3293;SDS011;1659;51.470;6.770;2022-12-05T01:27:08;61.67;;;28.70;;
3293;SDS011;1659;51.470;6.770;2022-12-05T01:29:35;57.33;;;28.00;;
3293;SDS011;1659;51.470;6.770;2022-12-05T01:32:01;62.70;;;30.40;;
3293;SDS011;1659;51.470;6.770;2022-12-05T01:34:29;66.10;;;30.67;;
3293;SDS011;1659;51.470;6.770;2022-12-05T01:36:56;66.80;;;28.80;;
3293;SDS011;1659;51.470;6.770;2022-12-05T01:39:23;63.23;;;30.83;;
3293;SDS011;1659;51.470;6.770;2022-12-05T01:41:49;60.70;;;29.50;;
3293;SDS011;1659;51.470;6.770;2022-12-05T01:47:29;59.83;;;29.23;;
3293;SDS011;1659;51.470;6.770;2022-12-05T01:49:59;61.73;;;29.27;;
3293;SDS011;1659;51.470;6.770;2022-12-05T01:52:26;64.67;;;28.73;;
3293;SDS011;1659;51.470;6.770;2022-12-05T01:54:55;61.43;;;27.90;;
3293;SDS011;1659;51.470;6.770;2022-12-05T01:57:26;58.50;;;29.07;;
3293;SDS011;1659;51.470;6.770;2022-12-05T01:59:53;64.13;;;30.57;;
3293;SDS011;1659;51.470;6.770;2022-12-05T02:02:22;54.00;;;29.57;;
3293;SDS011;1659;51.470;6.770;2022-12-05T02:04:50;59.00;;;28.90;;
3293;SDS011;1659;51.470;6.770;2022-12-05T02:07:25;65.90;;;29.90;;
3293;SDS011;1659;51.470;6.770;2022-12-05T02:09:52;57.93;;;29.40;;
3293;SDS011;1659;51.470;6.770;2022-12-05T02:12:18;55.60;;;28.20;;
3293;SDS011;1659;51.470;6.770;2022-12-05T02:14:48;70.10;;;29.40;;
3293;SDS011;1659;51.470;6.770;2022-12-05T02:17:26;56.70;;;28.07;;
3293;SDS011;1659;51.470;6.770;2022-12-05T02:20:13;56.67;;;27.63;;
3293;SDS011;1659;51.470;6.770;2022-12-05T02:22:56;54.23;;;27.90;;
3293;SDS011;1659;51.470;6.770;2022-12-05T02:28:53;61.53;;;27.47;;
3293;SDS011;1659;51.470;6.770;2022-12-05T02:31:35;56.27;;;27.73;;
3293;SDS011;1659;51.470;6.770;2022-12-05T02:34:09;70.13;;;28.37;;
3293;SDS011;1659;51.470;6.770;2022-12-05T02:36:46;52.13;;;26.87;;
3293;SDS011;1659;51.470;6.770;2022-12-05T02:39:25;56.67;;;27.43;;
3293;SDS011;1659;51.470;6.770;2022-12-05T02:42:01;59.47;;;27.23;;
3293;SDS011;1659;51.470;6.770;2022-12-05T02:44:36;60.07;;;27.80;;
3293;SDS011;1659;51.470;6.770;2022-12-05T02:47:10;53.20;;;25.67;;
3293;SDS011;1659;51.470;6.770;2022-12-05T02:49:39;56.17;;;27.53;;
3293;SDS011;1659;51.470;6.770;2022-12-05T02:52:09;52.50;;;26.30;;
3293;SDS011;1659;51.470;6.770;2022-12-05T02:54:39;64.40;;;29.40;;
3293;SDS011;1659;51.470;6.770;2022-12-05T02:57:08;52.90;;;26.07;;
3293;SDS011;1659;51.470;6.770;2022-12-05T02:59:36;58.83;;;27.80;;
3293;SDS011;1659;51.470;6.770;2022-12-05T03:02:03;59.10;;;27.90;;
3293;SDS011;1659;51.470;6.770;2022-12-05T03:04:31;53.40;;;26.77;;
3293;SDS011;1659;51.470;6.770;2022-12-05T03:06:58;56.47;;;28.73;;
3293;SDS011;1659;51.470;6.770;2022-12-05T03:09:29;59.57;;;28.00;;
3293;SDS011;1659;51.470;6.770;2022-12-05T03:12:01;61.13;;;26.87;;
3293;SDS011;1659;51.470;6.770;2022-12-05T03:14:36;51.50;;;27.37;;
3293;SDS011;1659;51.470;6.770;2022-12-05T03:17:07;59.50;;;25.67;;
3293;SDS011;1659;51.470;6.770;2022-12-05T03:19:42;58.00;;;27.30;;
3293;SDS011;1659;51.470;6.770;2022-12-05T03:22:16;59.73;;;26.53;;
3293;SDS011;1659;51.470;6.770;2022-12-05T03:24:46;63.67;;;26.67;;
3293;SDS011;1659;51.470;6.770;2022-12-05T03:27:14;60.10;;;27.37;;
3293;SDS011;1659;51.470;6.770;2022-12-05T03:29:49;59.37;;;26.53;;
3293;SDS011;1659;51.470;6.770;2022-12-05T03:32:20;56.40;;;26.23;;
3293;SDS011;1659;51.470;6.770;2022-12-05T03:34:57;49.07;;;27.07;;
3293;SDS011;1659;51.470;6.770;2022-12-05T03:37:29;56.17;;;27.20;;
3293;SDS011;1659;51.470;6.770;2022-12-05T03:40:08;53.80;;;25.27;;
3293;SDS011;1659;51.470;6.770;2022-12-05T03:42:42;50.00;;;23.03;;
3293;SDS011;1659;51.470;6.770;2022-12-05T03:45:17;53.57;;;25.03;;
3293;SDS011;1659;51.470;6.770;2022-12-05T03:47:51;52.23;;;25.97;;
3293;SDS011;1659;51.470;6.770;2022-12-05T03:50:26;52.93;;;23.90;;
3293;SDS011;1659;51.470;6.770;2022-12-05T03:52:55;53.53;;;25.30;;
3293;SDS011;1659;51.470;6.770;2022-12-05T03:55:28;52.27;;;24.90;;
3293;SDS011;1659;51.470;6.770;2022-12-05T03:57:58;56.57;;;25.73;;
3293;SDS011;1659;51.470;6.770;2022-12-05T04:00:28;55.70;;;24.53;;
3293;SDS011;1659;51.470;6.770;2022-12-05T04:03:01;55.47;;;27.30;;
3293;SDS011;1659;51.470;6.770;2022-12-05T04:05:34;53.50;;;25.07;;
3293;SDS011;1659;51.470;6.770;2022-12-05T04:08:05;46.93;;;24.70;;
3293;SDS011;1659;51.470;6.770;2022-12-05T04:10:36;54.27;;;25.77;;
3293;SDS011;1659;51.470;6.770;2022-12-05T04:13:14;57.23;;;26.57;;
3293;SDS011;1659;51.470;6.770;2022-12-05T04:15:44;54.33;;;25.47;;
3293;SDS011;1659;51.470;6.770;2022-12-05T04:18:31;54.10;;;25.87;;
3293;SDS011;1659;51.470;6.770;2022-12-05T04:21:00;45.80;;;24.57;;
3293;SDS011;1659;51.470;6.770;2022-12-05T04:23:45;54.23;;;25.70;;
3293;SDS011;1659;51.470;6.770;2022-12-05T04:26:32;54.10;;;23.93;;
3293;SDS011;1659;51.470;6.770;2022-12-05T04:29:02;58.90;;;27.20;;
3293;SDS011;1659;51.470;6.770;2022-12-05T04:31:38;51.03;;;25.67;;
3293;SDS011;1659;51.470;6.770;2022-12-05T04:34:09;51.97;;;25.97;;
3293;SDS011;1659;51.470;6.770;2022-12-05T04:36:41;46.57;;;24.47;;
3293;SDS011;1659;51.470;6.770;2022-12-05T04:39:11;54.03;;;24.77;;
3293;SDS011;1659;51.470;6.770;2022-12-05T04:41:44;52.83;;;25.50;;
3293;SDS011;1659;51.470;6.770;2022-12-05T04:44:16;54.23;;;26.13;;
3293;SDS011;1659;51.470;6.770;2022-12-05T04:46:45;57.23;;;27.00;;
3293;SDS011;1659;51.470;6.770;2022-12-05T04:49:16;53.13;;;27.47;;
3293;SDS011;1659;51.470;6.770;2022-12-05T04:51:47;59.60;;;27.63;;
3293;SDS011;1659;51.470;6.770;2022-12-05T04:54:19;53.40;;;25.63;;
3293;SDS011;1659;51.470;6.770;2022-12-05T04:56:47;56.23;;;25.13;;
3293;SDS011;1659;51.470;6.770;2022-12-05T04:59:19;57.13;;;26.77;;
3293;SDS011;1659;51.470;6.770;2022-12-05T05:01:47;56.47;;;26.50;;
3293;SDS011;1659;51.470;6.770;2022-12-05T05:04:18;52.53;;;24.70;;
3293;SDS011;1659;51.470;6.770;2022-12-05T05:06:52;58.43;;;25.67;;
3293;SDS011;1659;51.470;6.770;2022-12-05T05:09:18;48.17;;;26.13;;
3293;SDS011;1659;51.470;6.770;2022-12-05T05:11:45;61.27;;;27.23;;
3293;SDS011;1659;51.470;6.770;2022-12-05T05:14:12;60.57;;;25.50;;
3293;SDS011;1659;51.470;6.770;2022-12-05T05:16:39;61.53;;;26.93;;
3293;SDS011;1659;51.470;6.770;2022-12-05T05:19:07;60.23;;;27.97;;
3293;SDS011;1659;51.470;6.770;2022-12-05T05:21:36;52.27;;;24.97;;
3293;SDS011;1659;51.470;6.770;2022-12-05T05:24:06;60.07;;;26.30;;
3293;SDS011;1659;51.470;6.770;2022-12-05T05:26:35;51.10;;;24.13;;
3293;SDS011;1659;51.470;6.770;2022-12-05T05:29:03;51.20;;;24.03;;
3293;SDS011;1659;51.470;6.770;2022-12-05T05:31:30;48.13;;;23.60;;
3293;SDS011;1659;51.470;6.770;2022-12-05T05:33:57;54.70;;;24.50;;
3293;SDS011;1659;51.470;6.770;2022-12-05T05:36:25;50.43;;;25.20;;
3293;SDS011;1659;51.470;6.770;2022-12-05T05:38:53;46.40;;;22.67;;
3293;SDS011;1659;51.470;6.770;2022-12-05T05:41:23;56.57;;;25.33;;
3293;SDS011;1659;51.470;6.770;2022-12-05T05:43:51;48.83;;;25.83;;
3293;SDS011;1659;51.470;6.770;2022-12-05T05:46:19;50.10;;;27.50;;
3293;SDS011;1659;51.470;6.770;2022-12-05T05:48:47;51.13;;;24.40;;
3293;SDS011;1659;51.470;6.770;2022-12-05T05:51:14;55.13;;;24.57;;
3293;SDS011;1659;51.470;6.770;2022-12-05T05:53:42;50.17;;;23.63;;
3293;SDS011;1659;51.470;6.770;2022-12-05T05:56:10;45.07;;;22.23;;
3293;SDS011;1659;51.470;6.770;2022-12-05T05:58:39;52.73;;;26.33;;
3293;SDS011;1659;51.470;6.770;2022-12-05T06:01:06;45.17;;;23.80;;
3293;SDS011;1659;51.470;6.770;2022-12-05T06:03:34;43.90;;;22.57;;
3293;SDS011;1659;51.470;6.770;2022-12-05T06:06:02;43.73;;;23.30;;
3293;SDS011;1659;51.470;6.770;2022-12-05T06:08:30;43.00;;;20.40;;
3293;SDS011;1659;51.470;6.770;2022-12-05T06:10:58;50.87;;;23.90;;
3293;SDS011;1659;51.470;6.770;2022-12-05T06:13:24;42.93;;;21.63;;
3293;SDS011;1659;51.470;6.770;2022-12-05T06:15:52;40.37;;;22.47;;
3293;SDS011;1659;51.470;6.770;2022-12-05T06:18:19;39.47;;;21.70;;
3293;SDS011;1659;51.470;6.770;2022-12-05T06:20:50;45.17;;;24.10;;
3293;SDS011;1659;51.470;6.770;2022-12-05T06:23:17;43.30;;;22.23;;
3293;SDS011;1659;51.470;6.770;2022-12-05T06:25:45;45.30;;;23.07;;
3293;SDS011;1659;51.470;6.770;2022-12-05T06:28:12;39.07;;;22.63;;
3293;SDS011;1659;51.470;6.770;2022-12-05T06:30:39;52.77;;;23.50;;
3293;SDS011;1659;51.470;6.770;2022-12-05T06:33:07;49.20;;;22.70;;
3293;SDS011;1659;51.470;6.770;2022-12-05T06:35:33;39.60;;;22.90;;
3293;SDS011;1659;51.470;6.770;2022-12-05T06:38:00;46.83;;;23.03;;
3293;SDS011;1659;51.470;6.770;2022-12-05T06:40:26;46.97;;;23.00;;
3293;SDS011;1659;51.470;6.770;2022-12-05T06:42:53;48.97;;;23.80;;
3293;SDS011;1659;51.470;6.770;2022-12-05T06:45:20;48.93;;;24.30;;
3293;SDS011;1659;51.470;6.770;2022-12-05T06:47:47;46.53;;;25.43;;
3293;SDS011;1659;51.470;6.770;2022-12-05T06:50:15;39.60;;;22.33;;
3293;SDS011;1659;51.470;6.770;2022-12-05T06:52:41;47.63;;;23.33;;
3293;SDS011;1659;51.470;6.770;2022-12-05T06:55:10;49.17;;;24.17;;
3293;SDS011;1659;51.470;6.770;2022-12-05T06:57:37;40.00;;;21.20;;
3293;SDS011;1659;51.470;6.770;2022-12-05T07:00:04;46.17;;;22.20;;
3293;SDS011;1659;51.470;6.770;2022-12-05T07:02:45;43.00;;;22.50;;
3293;SDS011;1659;51.470;6.770;2022-12-05T07:05:11;47.57;;;21.17;;
3293;SDS011;1659;51.470;6.770;2022-12-05T07:07:39;49.67;;;21.80;;
3293;SDS011;1659;51.470;6.770;2022-12-05T07:10:06;49.50;;;22.73;;
3293;SDS011;1659;51.470;6.770;2022-12-05T07:12:33;38.53;;;20.87;;
3293;SDS011;1659;51.470;6.770;2022-12-05T07:15:00;37.00;;;20.47;;
3293;SDS011;1659;51.470;6.770;2022-12-05T07:17:26;40.80;;;23.07;;
3293;SDS011;1659;51.470;6.770;2022-12-05T07:19:53;39.13;;;20.70;;
3293;SDS011;1659;51.470;6.770;2022-12-05T07:22:20;29.43;;;18.60;;
3293;SDS011;1659;51.470;6.770;2022-12-05T07:24:50;37.60;;;20.37;;
3293;SDS011;1659;51.470;6.770;2022-12-05T07:27:17;38.80;;;19.70;;
3293;SDS011;1659;51.470;6.770;2022-12-05T07:29:44;36.30;;;19.90;;
3293;SDS011;1659;51.470;6.770;2022-12-05T07:32:11;39.03;;;19.80;;
3293;SDS011;1659;51.470;6.770;2022-12-05T07:34:38;30.23;;;20.03;;
3293;SDS011;1659;51.470;6.770;2022-12-05T07:37:06;34.47;;;18.67;;
3293;SDS011;1659;51.470;6.770;2022-12-05T07:39:32;36.50;;;18.20;;
3293;SDS011;1659;51.470;6.770;2022-12-05T07:42:00;39.40;;;19.00;;
3293;SDS011;1659;51.470;6.770;2022-12-05T07:44:27;30.63;;;18.40;;
3293;SDS011;1659;51.470;6.770;2022-12-05T07:46:53;31.67;;;17.67;;
3293;SDS011;1659;51.470;6.770;2022-12-05T07:49:20;31.57;;;18.20;;
3293;SDS011;1659;51.470;6.770;2022-12-05T07:51:46;29.67;;;18.27;;
3293;SDS011;1659;51.470;6.770;2022-12-05T07:54:13;35.70;;;17.87;;
3293;SDS011;1659;51.470;6.770;2022-12-05T07:56:39;32.73;;;17.90;;
3293;SDS011;1659;51.470;6.770;2022-12-05T07:59:07;26.83;;;16.80;;
3293;SDS011;1659;51.470;6.770;2022-12-05T08:01:34;31.30;;;17.77;;
3293;SDS011;1659;51.470;6.770;2022-12-05T08:04:01;28.53;;;17.00;;
3293;SDS011;1659;51.470;6.770;2022-12-05T08:06:28;28.83;;;17.90;;
3293;SDS011;1659;51.470;6.770;2022-12-05T08:08:56;31.73;;;17.37;;
3293;SDS011;1659;51.470;6.770;2022-12-05T08:11:24;38.37;;;17.80;;
3293;SDS011;1659;51.470;6.770;2022-12-05T08:13:51;32.27;;;18.77;;
3293;SDS011;1659;51.470;6.770;2022-12-05T08:16:20;27.70;;;16.57;;
3293;SDS011;1659;51.470;6.770;2022-12-05T08:18:47;34.00;;;17.87;;
3293;SDS011;1659;51.470;6.770;2022-12-05T08:21:15;31.90;;;17.63;;
3293;SDS011;1659;51.470;6.770;2022-12-05T08:23:43;29.77;;;18.47;;
3293;SDS011;1659;51.470;6.770;2022-12-05T08:26:11;32.20;;;17.70;;
3293;SDS011;1659;51.470;6.770;2022-12-05T08:28:40;32.60;;;18.37;;
3293;SDS011;1659;51.470;6.770;2022-12-05T08:31:08;32.37;;;17.00;;
3293;SDS011;1659;51.470;6.770;2022-12-05T08:33:37;26.17;;;16.90;;
3293;SDS011;1659;51.470;6.770;2022-12-05T08:36:05;32.97;;;17.27;;
3293;SDS011;1659;51.470;6.770;2022-12-05T08:38:33;29.97;;;16.90;;
3293;SDS011;1659;51.470;6.770;2022-12-05T08:40:59;31.97;;;17.27;;
3293;SDS011;1659;51.470;6.770;2022-12-05T08:43:26;30.97;;;18.50;;
3293;SDS011;1659;51.470;6.770;2022-12-05T08:45:53;28.80;;;15.60;;
3293;SDS011;1659;51.470;6.770;2022-12-05T08:48:20;37.10;;;17.47;;
3293;SDS011;1659;51.470;6.770;2022-12-05T08:50:48;31.93;;;18.23;;
3293;SDS011;1659;51.470;6.770;2022-12-05T08:53:15;37.73;;;19.30;;
3293;SDS011;1659;51.470;6.770;2022-12-05T08:55:42;30.67;;;18.50;;
3293;SDS011;1659;51.470;6.770;2022-12-05T08:58:09;30.10;;;18.13;;
3293;SDS011;1659;51.470;6.770;2022-12-05T09:00:36;34.60;;;18.90;;
3293;SDS011;1659;51.470;6.770;2022-12-05T09:03:02;33.73;;;18.03;;
3293;SDS011;1659;51.470;6.770;2022-12-05T09:05:29;29.93;;;17.00;;
3293;SDS011;1659;51.470;6.770;2022-12-05T09:07:57;32.30;;;17.07;;
3293;SDS011;1659;51.470;6.770;2022-12-05T09:10:24;33.20;;;19.80;;
3293;SDS011;1659;51.470;6.770;2022-12-05T09:12:51;29.83;;;17.33;;
3293;SDS011;1659;51.470;6.770;2022-12-05T09:15:17;30.23;;;17.57;;
3293;SDS011;1659;51.470;6.770;2022-12-05T09:17:44;34.33;;;17.77;;
3293;SDS011;1659;51.470;6.770;2022-12-05T09:20:11;32.43;;;19.33;;
3293;SDS011;1659;51.470;6.770;2022-12-05T09:22:38;32.50;;;18.17;;
3293;SDS011;1659;51.470;6.770;2022-12-05T09:25:07;30.70;;;18.50;;
3293;SDS011;1659;51.470;6.770;2022-12-05T09:27:34;40.40;;;18.83;;
3293;SDS011;1659;51.470;6.770;2022-12-05T09:30:01;31.00;;;18.03;;
3293;SDS011;1659;51.470;6.770;2022-12-05T09:32:28;31.10;;;18.27;;
3293;SDS011;1659;51.470;6.770;2022-12-05T09:34:54;34.67;;;20.10;;
3293;SDS011;1659;51.470;6.770;2022-12-05T09:37:21;30.50;;;17.80;;
3293;SDS011;1659;51.470;6.770;2022-12-05T09:39:47;36.20;;;19.57;;
3293;SDS011;1659;51.470;6.770;2022-12-05T09:42:19;39.23;;;21.10;;
3293;SDS011;1659;51.470;6.770;2022-12-05T09:45:01;33.50;;;19.40;;
3293;SDS011;1659;51.470;6.770;2022-12-05T09:47:41;34.67;;;18.60;;
3293;SDS011;1659;51.470;6.770;2022-12-05T09:50:16;28.87;;;17.60;;
3293;SDS011;1659;51.470;6.770;2022-12-05T09:52:49;31.50;;;18.57;;
3293;SDS011;1659;51.470;6.770;2022-12-05T09:55:23;36.47;;;18.60;;
3293;SDS011;1659;51.470;6.770;2022-12-05T09:57:56;30.80;;;17.70;;
3293;SDS011;1659;51.470;6.770;2022-12-05T10:00:23;30.83;;;18.80;;
3293;SDS011;1659;51.470;6.770;2022-12-05T10:02:56;36.23;;;20.43;;
3293;SDS011;1659;51.470;6.770;2022-12-05T10:05:29;28.87;;;18.67;;
3293;SDS011;1659;51.470;6.770;2022-12-05T10:08:05;28.73;;;17.63;;
3293;SDS011;1659;51.470;6.770;2022-12-05T10:10:44;32.77;;;18.50;;
3293;SDS011;1659;51.470;6.770;2022-12-05T10:13:26;34.27;;;17.93;;
3293;SDS011;1659;51.470;6.770;2022-12-05T10:16:02;26.07;;;16.47;;
3293;SDS011;1659;51.470;6.770;2022-12-05T10:18:33;27.37;;;18.17;;
3293;SDS011;1659;51.470;6.770;2022-12-05T10:21:08;27.10;;;16.57;;
3293;SDS011;1659;51.470;6.770;2022-12-05T10:23:42;33.60;;;17.20;;
3293;SDS011;1659;51.470;6.770;2022-12-05T10:26:17;32.00;;;16.27;;
3293;SDS011;1659;51.470;6.770;2022-12-05T10:28:49;31.70;;;17.20;;
3293;SDS011;1659;51.470;6.770;2022-12-05T10:31:23;29.80;;;18.37;;
3293;SDS011;1659;51.470;6.770;2022-12-05T10:33:55;30.73;;;18.83;;
3293;SDS011;1659;51.470;6.770;2022-12-05T10:36:27;38.50;;;20.20;;
3293;SDS011;1659;51.470;6.770;2022-12-05T10:38:54;33.13;;;19.70;;
3293;SDS011;1659;51.470;6.770;2022-12-05T10:41:21;37.23;;;20.13;;
3293;SDS011;1659;51.470;6.770;2022-12-05T10:43:50;30.67;;;19.67;;
3293;SDS011;1659;51.470;6.770;2022-12-05T10:46:16;35.40;;;18.70;;
3293;SDS011;1659;51.470;6.770;2022-12-05T10:48:43;38.77;;;19.93;;
3293;SDS011;1659;51.470;6.770;2022-12-05T10:51:12;32.27;;;18.53;;
3293;SDS011;1659;51.470;6.770;2022-12-05T10:53:41;27.27;;;18.67;;
3293;SDS011;1659;51.470;6.770;2022-12-05T10:59:03;28.23;;;17.70;;
3293;SDS011;1659;51.470;6.770;2022-12-05T11:01:30;34.10;;;19.40;;
3293;SDS011;1659;51.470;6.770;2022-12-05T11:03:58;33.60;;;18.47;;
3293;SDS011;1659;51.470;6.770;2022-12-05T11:06:26;32.13;;;20.57;;
3293;SDS011;1659;51.470;6.770;2022-12-05T11:08:55;30.70;;;18.10;;
3293;SDS011;1659;51.470;6.770;2022-12-05T11:11:24;30.17;;;17.27;;
3293;SDS011;1659;51.470;6.770;2022-12-05T11:13:53;28.20;;;16.27;;
3293;SDS011;1659;51.470;6.770;2022-12-05T11:16:23;31.10;;;16.63;;
3293;SDS011;1659;51.470;6.770;2022-12-05T11:18:52;30.03;;;16.90;;
3293;SDS011;1659;51.470;6.770;2022-12-05T11:21:18;26.23;;;16.57;;
3293;SDS011;1659;51.470;6.770;2022-12-05T11:23:45;28.50;;;16.30;;
3293;SDS011;1659;51.470;6.770;2022-12-05T11:26:17;28.80;;;17.10;;
3293;SDS011;1659;51.470;6.770;2022-12-05T11:28:45;29.40;;;18.07;;
3293;SDS011;1659;51.470;6.770;2022-12-05T11:31:29;26.80;;;18.50;;
3293;SDS011;1659;51.470;6.770;2022-12-05T11:33:59;33.60;;;17.67;;
3293;SDS011;1659;51.470;6.770;2022-12-05T11:36:30;31.73;;;18.77;;
3293;SDS011;1659;51.470;6.770;2022-12-05T11:39:03;26.87;;;17.00;;
3293;SDS011;1659;51.470;6.770;2022-12-05T11:41:42;31.63;;;17.60;;
3293;SDS011;1659;51.470;6.770;2022-12-05T11:44:34;28.63;;;17.70;;
3293;SDS011;1659;51.470;6.770;2022-12-05T11:47:16;30.17;;;17.73;;
3293;SDS011;1659;51.470;6.770;2022-12-05T11:50:01;29.83;;;18.53;;
3293;SDS011;1659;51.470;6.770;2022-12-05T11:52:40;33.37;;;18.67;;
3293;SDS011;1659;51.470;6.770;2022-12-05T11:55:20;30.27;;;18.67;;
3293;SDS011;1659;51.470;6.770;2022-12-05T11:57:58;32.00;;;20.10;;
3293;SDS011;1659;51.470;6.770;2022-12-05T12:00:34;28.77;;;19.80;;
3293;SDS011;1659;51.470;6.770;2022-12-05T12:03:18;40.10;;;20.30;;
3293;SDS011;1659;51.470;6.770;2022-12-05T12:06:05;30.60;;;19.80;;
3293;SDS011;1659;51.470;6.770;2022-12-05T12:08:47;30.13;;;19.30;;
3293;SDS011;1659;51.470;6.770;2022-12-05T12:11:22;35.97;;;20.57;;
3293;SDS011;1659;51.470;6.770;2022-12-05T12:13:57;36.60;;;20.60;;
3293;SDS011;1659;51.470;6.770;2022-12-05T12:16:33;30.80;;;19.83;;
3293;SDS011;1659;51.470;6.770;2022-12-05T12:19:20;31.80;;;20.40;;
3293;SDS011;1659;51.470;6.770;2022-12-05T12:22:04;31.57;;;20.80;;
3293;SDS011;1659;51.470;6.770;2022-12-05T12:24:50;32.77;;;21.70;;
3293;SDS011;1659;51.470;6.770;2022-12-05T12:27:28;33.60;;;21.30;;
3293;SDS011;1659;51.470;6.770;2022-12-05T12:30:04;30.90;;;20.27;;
3293;SDS011;1659;51.470;6.770;2022-12-05T12:32:38;33.93;;;21.00;;
3293;SDS011;1659;51.470;6.770;2022-12-05T12:35:22;34.43;;;21.63;;
3293;SDS011;1659;51.470;6.770;2022-12-05T12:40:47;33.37;;;22.53;;
3293;SDS011;1659;51.470;6.770;2022-12-05T12:43:19;33.30;;;22.47;;
3293;SDS011;1659;51.470;6.770;2022-12-05T12:46:05;33.13;;;20.97;;
3293;SDS011;1659;51.470;6.770;2022-12-05T12:48:45;29.17;;;20.20;;
3293;SDS011;1659;51.470;6.770;2022-12-05T12:51:25;34.53;;;21.10;;
3293;SDS011;1659;51.470;6.770;2022-12-05T12:54:00;34.10;;;19.60;;
3293;SDS011;1659;51.470;6.770;2022-12-05T12:56:38;27.97;;;19.03;;
3293;SDS011;1659;51.470;6.770;2022-12-05T12:59:22;34.00;;;19.83;;
3293;SDS011;1659;51.470;6.770;2022-12-05T13:01:59;27.53;;;18.30;;
3293;SDS011;1659;51.470;6.770;2022-12-05T13:04:36;27.30;;;17.70;;
3293;SDS011;1659;51.470;6.770;2022-12-05T13:07:13;34.40;;;18.50;;
3293;SDS011;1659;51.470;6.770;2022-12-05T13:09:46;25.13;;;16.07;;
3293;SDS011;1659;51.470;6.770;2022-12-05T13:12:19;30.80;;;16.97;;
3293;SDS011;1659;51.470;6.770;2022-12-05T13:14:50;27.90;;;17.20;;
3293;SDS011;1659;51.470;6.770;2022-12-05T13:17:19;28.83;;;17.03;;
3293;SDS011;1659;51.470;6.770;2022-12-05T13:19:48;27.10;;;16.83;;
3293;SDS011;1659;51.470;6.770;2022-12-05T13:22:17;28.50;;;16.80;;
3293;SDS011;1659;51.470;6.770;2022-12-05T13:24:48;31.97;;;17.90;;
3293;SDS011;1659;51.470;6.770;2022-12-05T13:27:15;32.63;;;18.13;;
3293;SDS011;1659;51.470;6.770;2022-12-05T13:29:47;32.27;;;18.50;;
3293;SDS011;1659;51.470;6.770;2022-12-05T13:32:29;35.00;;;19.17;;
3293;SDS011;1659;51.470;6.770;2022-12-05T13:34:58;26.10;;;18.27;;
3293;SDS011;1659;51.470;6.770;2022-12-05T13:37:28;29.57;;;19.37;;
3293;SDS011;1659;51.470;6.770;2022-12-05T13:40:18;30.97;;;19.63;;
3293;SDS011;1659;51.470;6.770;2022-12-05T13:43:06;37.53;;;20.63;;
3293;SDS011;1659;51.470;6.770;2022-12-05T13:45:35;39.93;;;23.60;;
3293;SDS011;1659;51.470;6.770;2022-12-05T13:48:13;39.47;;;22.00;;
3293;SDS011;1659;51.470;6.770;2022-12-05T13:50:48;42.70;;;23.50;;
3293;SDS011;1659;51.470;6.770;2022-12-05T13:53:28;52.97;;;24.07;;
3293;SDS011;1659;51.470;6.770;2022-12-05T13:56:02;42.57;;;21.57;;
3293;SDS011;1659;51.470;6.770;2022-12-05T13:58:40;39.80;;;22.40;;
3293;SDS011;1659;51.470;6.770;2022-12-05T14:04:20;47.30;;;23.37;;
3293;SDS011;1659;51.470;6.770;2022-12-05T14:06:56;42.70;;;22.83;;
3293;SDS011;1659;51.470;6.770;2022-12-05T14:09:28;44.27;;;23.50;;
3293;SDS011;1659;51.470;6.770;2022-12-05T14:12:29;43.50;;;24.00;;
3293;SDS011;1659;51.470;6.770;2022-12-05T14:15:22;54.27;;;26.70;;
3293;SDS011;1659;51.470;6.770;2022-12-05T14:17:50;56.67;;;27.97;;
3293;SDS011;1659;51.470;6.770;2022-12-05T14:20:24;57.43;;;28.10;;
3293;SDS011;1659;51.470;6.770;2022-12-05T14:23:00;50.67;;;25.87;;
3293;SDS011;1659;51.470;6.770;2022-12-05T14:25:42;47.40;;;27.27;;
3293;SDS011;1659;51.470;6.770;2022-12-05T14:28:23;55.57;;;26.50;;
3293;SDS011;1659;51.470;6.770;2022-12-05T14:31:07;51.80;;;26.67;;
3293;SDS011;1659;51.470;6.770;2022-12-05T14:34:02;52.53;;;27.70;;
3293;SDS011;1659;51.470;6.770;2022-12-05T14:36:31;64.43;;;29.67;;
3293;SDS011;1659;51.470;6.770;2022-12-05T14:38:58;56.50;;;27.07;;
3293;SDS011;1659;51.470;6.770;2022-12-05T14:41:26;64.17;;;28.60;;
3293;SDS011;1659;51.470;6.770;2022-12-05T14:43:58;51.90;;;27.07;;
3293;SDS011;1659;51.470;6.770;2022-12-05T14:46:27;52.07;;;26.93;;
3293;SDS011;1659;51.470;6.770;2022-12-05T14:48:57;60.23;;;26.27;;
3293;SDS011;1659;51.470;6.770;2022-12-05T14:51:42;49.53;;;25.20;;
3293;SDS011;1659;51.470;6.770;2022-12-05T14:54:11;55.30;;;26.27;;
3293;SDS011;1659;51.470;6.770;2022-12-05T14:56:42;43.00;;;24.00;;
3293;SDS011;1659;51.470;6.770;2022-12-05T14:59:16;41.67;;;22.93;;
3293;SDS011;1659;51.470;6.770;2022-12-05T15:01:50;39.07;;;21.57;;
3293;SDS011;1659;51.470;6.770;2022-12-05T15:04:21;35.20;;;20.10;;
3293;SDS011;1659;51.470;6.770;2022-12-05T15:06:54;37.10;;;19.97;;
3293;SDS011;1659;51.470;6.770;2022-12-05T15:09:27;41.07;;;20.60;;
3293;SDS011;1659;51.470;6.770;2022-12-05T15:12:00;37.80;;;21.37;;
3293;SDS011;1659;51.470;6.770;2022-12-05T15:14:31;38.70;;;20.87;;
3293;SDS011;1659;51.470;6.770;2022-12-05T15:17:03;34.77;;;19.97;;
3293;SDS011;1659;51.470;6.770;2022-12-05T15:19:32;39.00;;;21.27;;
3293;SDS011;1659;51.470;6.770;2022-12-05T15:22:07;35.53;;;21.13;;
3293;SDS011;1659;51.470;6.770;2022-12-05T15:24:38;33.90;;;20.10;;
3293;SDS011;1659;51.470;6.770;2022-12-05T15:27:07;39.40;;;21.40;;